Startpagina
METAR-TAF:

METAR-TAF

Vliegvelden :

Luchthaven Doesjanbe

Doesjanbe, Tadzjikistan

breedte: 38-33N, lengte: 068-47E, hoogte: 803 m

Actueel weer

Dit bericht is 31 minuten geleden gemaakt, om 02:00 UTC
Wind 2 kt uit variabele richting
Temperatuur 6°C
Vochtigheid 81%
Druk 1023 hPa
Zicht: 8000 m

METAR: UTDD 180200Z VRB01MPS 8000 NSC 06/03 Q1023 R09/D NOSIG RMK QFE699/0931

Tijdstip: 07:31 (02:31 UTC)

Verwachting

Dit bericht is 14 uur en het 31 minuten geleden gemaakt, om 12:00 UTC
Verwachting geldig van 17 om 13 UTC tot 18 om 01 UTC
Wind 4 kt uit variabele richting
Zicht: 6000 m
Verspreide wolken op 4000 ft, Cumulonimbus.
Gebroken wolken op 10000 ft
Tijdelijke
van 17 om 13 UTC tot 18 om 01 UTC
Wind 10 kt uit het oosten
Zicht: 3100 m
nevel, rook
Kans 40% :
Tijdelijke
van 17 om 13 UTC tot 18 om 01 UTC
Zicht: 2000 m
onweer, regen, nevel

TAF: UTDD 171200Z 1713/1801 VRB02MPS 6000 SCT040CB BKN100 TEMPO 1713/1801 09005MPS 3100 BR FU PROB40 TEMPO 1713/1801 2000 TSRA BR

Waarnemingen en weersverwachtingen van meer dan 4000 vliegvelden (METAR en TAF).

De beschikbare stations zijn de gele en rode punten op de kaart.

Ga met uw muis naar het station om de naam te zien.

Klik dan om waarnemingen en weersverwachtingen te zien.

kaart wijzigen: klik op de groene knoppen met een zwart kruis om in te zoomen, op de groene knop met een streepje om uit te zoomen of op de groene pijlen voor aangrenzende kaarten.


METAR-TAF: